Nearby METAR Reports - 80 Mile Radius
Meteorological Terminal Air Report (METAR)


KBWI - Balto/Wash Intl Airport, Maryland
Distance from station: S 5mi, 8km
Updated: Thu, 21-Mar-2019 10:54am EDT
Rain, Mist, Overcast
Rain, Mist, Overcast
 Wind from N
Wind: N 6 mph , 9 km/h
Temperature: 46°F , 8°C
Wind Chill: 43°F , 6°C
Dew Point: 45°F , 7°C
Humidity: 93%
Barometer: 29.94 inHg , 1013.9 hPa
Summary: Rain, Mist
Clouds: Overcast
Visibility: 2 1/2 miles , 4 km
Cloud details: Overcast 500 ft
2019/03/21 14:54 KBWI 211454Z 35005KT 2 1/2SM RA BR OVC005 08/07 A2994 RMK AO2 SLP139 P0012 60021 T00780072 58014
KDMH - Baltimore/Dwntwn, Maryland
Distance from station: NE 5mi, 9km
Updated: Thu, 21-Mar-2019 10:54am EDT

 
Temperature: 46°F , 8°C
Dew Point: 45°F , 7°C
Humidity: 93%
Barometer: 29.97 inHg , 1014.9 hPa
2019/03/21 14:54 KDMH 211454Z AUTO 08/07 A2997 RMK AO1 SLP149 P0016 60029 T00830072 56012
KFME - Fort Meade/Tipton AAF, Maryland
Distance from station: SSW 11mi, 18km
Updated: Thu, 21-Mar-2019 10:42am EDT
Overcast
Overcast
 Wind from N
Wind: N 5 mph , 7 km/h
Temperature: 45°F , 7°C
Wind Chill: 42°F , 6°C
Dew Point: 43°F , 6°C
Humidity: 93%
Barometer: 29.98 inHg , 1015.2 hPa
Clouds: Overcast
Visibility: 4 miles , 6 km
Cloud details: Overcast 500 ft
2019/03/21 14:42 KFME 211442Z AUTO 01004KT 4SM OVC005 07/06 A2998 RMK AO1
 
KMTN - Balto/Martin State Airport, Maryland
Distance from station: ENE 16mi, 26km
Updated: Thu, 21-Mar-2019 10:45am EDT
Rain, Overcast
Rain, Overcast
 Wind from calm
Wind: Calm
Temperature: 48°F , 9°C
Dew Point: 48°F , 9°C
Humidity: 100%
Barometer: 29.97 inHg , 1014.9 hPa
Summary: Rain
Clouds: Overcast
Visibility: 2 1/2 miles , 4 km
Cloud details: Overcast 500 ft
2019/03/21 14:45 KMTN 211445Z 00000KT 2 1/2SM RA OVC005 09/09 A2997
KCGS - College Park Airport, Maryland
Distance from station: SSW 21mi, 34km
Updated: Thu, 21-Mar-2019 11:24am EDT
Overcast
Overcast
 Wind from calm
Wind: Calm
Temperature: 45°F , 7°C
Dew Point: 43°F , 6°C
Humidity: 93%
Barometer: 29.94 inHg , 1013.9 hPa
Clouds: Overcast
Visibility: 4 miles , 6 km
Cloud details: Overcast 600 ft
2019/03/21 15:24 KCGS 211524Z AUTO 00000KT 4SM OVC006 07/06 A2994 RMK AO1 T00650057
KNAK - Annapolis/Naval Academy, Maryland
Distance from station: SE 21mi, 34km
Updated: Thu, 21-Mar-2019 11:02am EDT
Rain, Mist, Overcast
Rain, Mist, Overcast
 Wind from N
Wind: N 3 mph , 6 km/h
Temperature: 52°F , 11°C
Dew Point: 46°F , 8°C
Humidity: 82%
Barometer: 29.94 inHg , 1013.9 hPa
Summary: Rain, Mist
Clouds: Overcast
Visibility: 1 1/2 miles , 2.4 km
Cloud details: Overcast 700 ft
2019/03/21 15:02 KNAK 211502Z AUTO 01003KT 1 1/2SM RA BR OVC007 11/08 A2994 RMK AO2 P0002 T01060083
 
KGAI - Gaithersburg/Montgomery Co Airpark, Maryland
Distance from station: W 26mi, 41km
Updated: Thu, 21-Mar-2019 11:26am EDT
Rain, Mist, Overcast
Rain, Mist, Overcast
 Wind from calm
Wind: Calm
Temperature: 43°F , 6°C
Dew Point: 41°F , 5°C
Humidity: 93%
Barometer: 29.94 inHg , 1013.9 hPa
Summary: Rain, Mist
Clouds: Overcast
Visibility: 4 miles , 6 km
Cloud details: Partly Cloudy 600 ft
Mostly Cloudy 1000 ft
Overcast 5500 ft
2019/03/21 15:26 KGAI 211526Z AUTO 00000KT 4SM RA BR SCT006 BKN010 OVC055 06/05 A2994 RMK AO2 P0009
KW29 - Stevensville/Bay Bridge Airport, Maryland
Distance from station: SE 26mi, 42km
Updated: Thu, 21-Mar-2019 11:20am EDT
Rain, Mist, Overcast
Rain, Mist, Overcast
 Wind from ESE
Wind: ESE 5 mph , 7 km/h
Temperature: 48°F , 9°C
Wind Chill: 46°F , 8°C
Barometer: 29.93 inHg , 1013.5 hPa
Summary: Rain, Mist
Clouds: Overcast
Visibility: 2 1/2 miles , 4 km
Cloud details: Partly Cloudy 500 ft
Mostly Cloudy 4800 ft
Overcast 5500 ft
2019/03/21 15:20 KW29 211520Z AUTO 11004KT 2 1/2SM RA BR SCT005 BKN048 OVC055 09/ A2993 RMK AO2 VIS 2V3
KDMW - Carroll Co Regional Airport, Maryland
Distance from station: NNW 30mi, 48km
Updated: Thu, 21-Mar-2019 11:20am EDT
Rain, Overcast
Rain, Overcast
 Wind from NNE
Wind: NNE 7 mph , 11 km/h
Temperature: 43°F , 6°C
Wind Chill: 39°F , 4°C
Dew Point: 39°F , 4°C
Humidity: 87%
Barometer: 29.94 inHg , 1013.9 hPa
Summary: Rain
Clouds: Overcast
Visibility: 5 miles , 8 km
Cloud details: Partly Cloudy 400 ft
Mostly Cloudy 1500 ft
Overcast 2100 ft
2019/03/21 15:20 KDMW 211520Z AUTO 02006KT 5SM RA SCT004 BKN015 OVC021 06/04 A2994 RMK AO2 P0004
 
KADW - Andrews AFB, Maryland
Distance from station: SSW 30mi, 49km
Updated: Thu, 21-Mar-2019 9:56am EDT
NOT Current
Rain, Mist, Overcast
Rain, Mist, Overcast
 Wind from N
Wind: N 6 mph , 9 km/h
Temperature: 45°F , 7°C
Wind Chill: 42°F , 6°C
Dew Point: 45°F , 7°C
Humidity: 100%
Barometer: 29.94 inHg , 1013.9 hPa
Summary: Rain, Mist
Clouds: Overcast
Visibility: 4 miles , 6 km
Cloud details: Overcast 300 ft
2019/03/21 13:56 KADW 211356Z AUTO 36005KT 4SM RA BR OVC003 07/07 A2994 RMK AO2 CIG 002 RWY19L SLP147 P0008 T00720071 $
KAPG - Aberdeen/Phillip AAF, Maryland
Distance from station: ENE 32mi, 52km
Updated: Thu, 21-Mar-2019 9:49am EDT
NOT Current
Light rain, Mist, Overcast
Light rain, Mist, Overcast
 Wind from calm
Wind: Calm
Temperature: 45°F , 7°C
Dew Point: 45°F , 7°C
Humidity: 100%
Barometer: 30.00 inHg , 1015.9 hPa
Summary: Light rain, Mist
Clouds: Overcast
Visibility: 2 miles , 3 km
Cloud details: Overcast 500 ft
2019/03/21 13:49 KAPG 211349Z 00000KT 2SM -RA BR OVC005 07/07 A3000 RMK SLPNO $
KDCA - Washington/Natl Airport, Washington D.C.
Distance from station: SW 32mi, 52km
Updated: Thu, 21-Mar-2019 11:06am EDT
Rain, Mist, Overcast
Rain, Mist, Overcast
 Wind from N
Wind: N 13 mph , 20 km/h
Temperature: 46°F , 8°C
Wind Chill: 40°F , 4°C
Dew Point: 45°F , 7°C
Humidity: 93%
Barometer: 29.94 inHg , 1013.9 hPa
Summary: Rain, Mist
Clouds: Overcast
Visibility: 3 miles , 5 km
Cloud details: Mostly Cloudy 800 ft
Mostly Cloudy 2900 ft
Overcast 5000 ft
2019/03/21 15:06 KDCA 211506Z 36011KT 3SM RA BR BKN008 BKN029 OVC050 08/07 A2994 RMK AO2 P0006 T00830067
 
KFDK - Frederick Municipal Airport, Maryland
Distance from station: WNW 38mi, 61km
Updated: Thu, 21-Mar-2019 10:47am EDT
Light Rain
Light Rain
 Wind from NNE
Wind: NNE 8 mph , 13 km/h
Temperature: 43°F , 6°C
Wind Chill: 38°F , 3°C
Dew Point: 41°F , 5°C
Humidity: 93%
Barometer: 30.01 inHg , 1016.3 hPa
Summary: Light Rain
Visibility: 3 miles , 5 km
2019/03/21 14:47 KFDK 211447Z 02007KT 3SM -RA 06/05 A3001
KDAA - Fort Belvoir/Davison AAF, Virginia
Distance from station: SW 44mi, 71km
Updated: Thu, 21-Mar-2019 9:56am EDT
NOT Current
Rain, Mist, Overcast
Rain, Mist, Overcast
 Wind from NW
Wind: NW 5 mph , 7 km/h
Temperature: 45°F , 7°C
Wind Chill: 42°F , 6°C
Dew Point: 43°F , 6°C
Humidity: 93%
Barometer: 29.96 inHg , 1014.6 hPa
Summary: Rain, Mist
Clouds: Overcast
Visibility: 5 miles , 8 km
Cloud details: Mostly Cloudy 500 ft
Overcast 900 ft
2019/03/21 13:56 KDAA 211356Z AUTO 32004KT 5SM RA BR BKN005 OVC009 07/06 A2996 RMK AO2 SLP149 P0019 T00700059 $
KESN - Easton/Newnam Field Airport, Maryland
Distance from station: SE 45mi, 73km
Updated: Thu, 21-Mar-2019 10:46am EDT
Rain, Overcast
Rain, Overcast
 Wind from E
Wind: E 7 mph , 11 km/h
Temperature: 50°F , 10°C
Wind Chill: 47°F , 8°C
Dew Point: 48°F , 9°C
Humidity: 94%
Barometer: 29.98 inHg , 1015.2 hPa
Summary: Rain
Clouds: Overcast
Visibility: 2 miles , 3 km
Cloud details: Overcast 800 ft
2019/03/21 14:46 KESN 211446Z 08006KT 2SM RA OVC008 10/09 A2998
 
KIAD - Wash DC/Dulles Intl, Virginia
Distance from station: WSW 45mi, 73km
Updated: Thu, 21-Mar-2019 10:52am EDT
Rain, Mist, Overcast
Rain, Mist, Overcast
 Wind from N
Wind: N 10 mph , 17 km/h
Temperature: 43°F , 6°C
Wind Chill: 37°F , 3°C
Dew Point: 39°F , 4°C
Humidity: 87%
Barometer: 29.94 inHg , 1013.9 hPa
Summary: Rain, Mist
Clouds: Overcast
Visibility: 3 miles , 5 km
Cloud details: Mostly Cloudy 500 ft
Overcast 4500 ft
2019/03/21 14:52 KIAD 211452Z 35009KT 3SM RA BR BKN005 OVC045 06/04 A2994 RMK AO2 SLP141 P0017 60037 T00560044 58016
KJYO - Leesburg/Godfrey Field, Virginia
Distance from station: WSW 48mi, 77km
Updated: Thu, 21-Mar-2019 11:15am EDT
Overcast
Overcast
 Wind from N
Wind: N 14 mph , 22 km/h
Temperature: 39°F , 4°C
Wind Chill: 31°F , -1°C
Dew Point: 39°F , 4°C
Humidity: 100%
Barometer: 29.95 inHg , 1014.2 hPa
Clouds: Overcast
Visibility: 2 miles , 3 km
Cloud details: Overcast 400 ft
2019/03/21 15:15 KJYO 211515Z AUTO 01012KT 2SM OVC004 04/04 A2995 RMK AO2
KTHV - York Airport, Pennsylvania
Distance from station: NNW 48mi, 77km
Updated: Thu, 21-Mar-2019 11:20am EDT
Rain, Mist, Overcast
Rain, Mist, Overcast
 Wind from NNE
Wind: NNE 5 mph , 7 km/h
Temperature: 41°F , 5°C
Wind Chill: 38°F , 3°C
Dew Point: 39°F , 4°C
Humidity: 93%
Barometer: 29.96 inHg , 1014.6 hPa
Summary: Rain, Mist
Clouds: Overcast
Visibility: 2 miles , 3 km
Cloud details: Mostly Cloudy 600 ft
Mostly Cloudy 1100 ft
Overcast 3500 ft
2019/03/21 15:20 KTHV 211520Z AUTO 03004KT 2SM RA BR BKN006 BKN011 OVC035 05/04 A2996 RMK AO2 P0010 T00500044
 
KRSP - Naval Support Fac Thurmont, Maryland, USA
Distance from station: NW 50mi, 81km
Updated: Thu, 21-Mar-2019 10:54am EDT
Light rain, Fog, Overcast
Light rain, Fog, Overcast
 Wind from NE
Wind: NE 3 mph , 6 km/h
Temperature: 37°F , 3°C
Dew Point: 37°F , 3°C
Humidity: 100%
Barometer: 29.96 inHg , 1014.6 hPa
Summary: Light rain, Fog
Clouds: Overcast
Visibility: 1/4 mile , 0.4 km
Cloud details: Overcast 400 ft
2019/03/21 14:54 KRSP 211454Z AUTO 04003KT 1/4SM -RA FG VV004 03/03 A2996 RMK AO2 SLP162 P0013 60041 T00280028 55000 $
KRYT - Fountain Dale Airport, Pennsylvania
Distance from station: NW 52mi, 84km
Updated: Mon, 13-Nov-2017 7:53am EST
NOT Current
Mist, Overcast
Mist, Overcast
 Wind from calm
Wind: Calm
Temperature: 37°F , 3°C
Dew Point: 34°F , 1°C
Humidity: 87%
Barometer: 30.31 inHg , 1026.4 hPa
Summary: Mist
Clouds: Overcast
Visibility: 5 miles , 8 km
Cloud details: Overcast 700 ft
2017/11/13 12:53 KRYT 131253Z AUTO 00000KT 5SM BR OVC007 03/01 A3031 RMK AO2 SLP275 T00280011 TSNO $
KHEF - Manassas Municipal Airport, Virginia
Distance from station: SW 57mi, 91km
Updated: Thu, 21-Mar-2019 11:03am EDT
Rain, Overcast
Rain, Overcast
 Wind from N
Wind: N 13 mph , 20 km/h
Temperature: 43°F , 6°C
Wind Chill: 36°F , 2°C
Dew Point: 41°F , 5°C
Humidity: 93%
Barometer: 29.92 inHg , 1013.2 hPa
Summary: Rain
Clouds: Overcast
Visibility: 8 miles , 13 km
Cloud details: Mostly Cloudy 500 ft
Mostly Cloudy 900 ft
Overcast 4900 ft
2019/03/21 15:03 KHEF 211503Z 01011KT 8SM RA BKN005 BKN009 OVC049 06/05 A2992 RMK AO2 PNO $
 
KNYG - Quantico Marine Corps Air Fac, Virginia
Distance from station: SSW 60mi, 96km
Updated: Thu, 21-Mar-2019 10:56am EDT
Light rain, Mist, Overcast
Light rain, Mist, Overcast
 Wind from NNE
Wind: NNE 10 mph , 17 km/h
Temperature: 46°F , 8°C
Wind Chill: 41°F , 5°C
Dew Point: 45°F , 7°C
Humidity: 93%
Barometer: 29.92 inHg , 1013.2 hPa
Summary: Light rain, Mist
Clouds: Overcast
Visibility: 6 miles , 10 km
Cloud details: Mostly Cloudy 1000 ft
Overcast 2000 ft
2019/03/21 14:56 KNYG 211456Z 03009KT 6SM -RA BR BKN010 OVC020 08/07 A2992 RMK AO2 SLP131 6//// T00780072 58024 PNO $
KCGE - Cambridge-Dorchester Reg Airport, Maryland
Distance from station: SE 60mi, 97km
Updated: Thu, 21-Mar-2019 11:20am EDT
Mist, Mostly cloudy
Mist, Mostly cloudy
 Wind from ENE
Wind: ENE 5 mph , 7 km/h
Temperature: 50°F , 10°C
Wind Chill: 48°F , 9°C
Dew Point: 50°F , 10°C
Humidity: 100%
Barometer: 29.91 inHg , 1012.9 hPa
Summary: Mist
Clouds: Mostly Cloudy
Visibility: 4 miles , 6 km
Cloud details: Few Clouds 500 ft
Few Clouds 1200 ft
Mostly Cloudy 2000 ft
2019/03/21 15:20 KCGE 211520Z AUTO 07004KT 4SM BR FEW005 FEW012 BKN020 10/10 A2991 RMK A01
K2W6 - St Marys Co Reg Airport, Maryland
Distance from station: SSE 64mi, 103km
Updated: Thu, 21-Mar-2019 11:23am EDT
Overcast
Overcast
 Wind from NE
Wind: NE 5 mph , 7 km/h
Temperature: 50°F , 10°C
Wind Chill: 48°F , 9°C
Dew Point: 50°F , 10°C
Humidity: 100%
Barometer: 29.88 inHg , 1011.9 hPa
Clouds: Overcast
Visibility: 7 miles , 11 km
Cloud details: Overcast 300 ft
2019/03/21 15:23 K2W6 211523Z AUTO 05004KT 7SM OVC003 10/10 A2988 RMK AO1
 
KHGR - Hagerstown Reg Airport, Maryland
Distance from station: WNW 64mi, 103km
Updated: Thu, 21-Mar-2019 10:53am EDT
Rain, Mist, Overcast
Rain, Mist, Overcast
 Wind from N
Wind: N 9 mph , 15 km/h
Temperature: 41°F , 5°C
Wind Chill: 35°F , 2°C
Dew Point: 37°F , 3°C
Humidity: 87%
Barometer: 29.96 inHg , 1014.6 hPa
Summary: Rain, Mist
Clouds: Overcast
Visibility: 2 miles , 3 km
Cloud details: Mostly Cloudy 600 ft
Overcast 900 ft
2019/03/21 14:53 KHGR 211453Z 35008KT 2SM RA BR BKN006 OVC009 05/03 A2996 RMK AO2 CIG 003V008 SLP158 P0008 60015 T00500033 58016
KLNS - Lancaster Airport, Pennsylvania
Distance from station: NNE 64mi, 104km
Updated: Thu, 21-Mar-2019 11:23am EDT
Rain, Mist, Overcast
Rain, Mist, Overcast
 Wind from NE
Wind: NE 9 mph , 15 km/h
Temperature: 45°F , 7°C
Wind Chill: 40°F , 4°C
Dew Point: 43°F , 6°C
Humidity: 93%
Barometer: 29.96 inHg , 1014.6 hPa
Summary: Rain, Mist
Clouds: Overcast
Visibility: 2 1/2 miles , 4 km
Cloud details: Overcast 1100 ft
2019/03/21 15:23 KLNS 211523Z 05008KT 2 1/2SM RA BR OVC011 07/06 A2996 RMK AO2 P0010 T00670056
KILG - New Castle Airport, Wilmington, Delaware
Distance from station: ENE 66mi, 106km
Updated: Thu, 21-Mar-2019 11:01am EDT
Overcast
Overcast
 Wind from E
Wind: E 5 mph , 7 km/h
Temperature: 48°F , 9°C
Wind Chill: 46°F , 8°C
Dew Point: 46°F , 8°C
Humidity: 94%
Barometer: 29.97 inHg , 1014.9 hPa
Clouds: Overcast
Visibility: 10 miles , 16 km
Cloud details: Overcast 600 ft
2019/03/21 15:01 KILG 211501Z 09004KT 10SM OVC006 09/08 A2997 RMK AO2 RAE1459 P0000 T00940083
 
KDOV - Dover Air Force Base, Delaware
Distance from station: E 66mi, 107km
Updated: Thu, 21-Mar-2019 9:56am EDT
NOT Current
Light rain, Overcast
Light rain, Overcast
 Wind from SSE
Wind: SSE 5 mph , 7 km/h
Temperature: 48°F , 9°C
Wind Chill: 46°F , 8°C
Dew Point: 48°F , 9°C
Humidity: 100%
Barometer: 29.98 inHg , 1015.2 hPa
Summary: Light Rain
Clouds: Overcast
Visibility: 8 miles , 13 km
Cloud details: Few Clouds 800 ft
Mostly Cloudy 2700 ft
Overcast 3200 ft
2019/03/21 13:56 KDOV 211356Z AUTO 15004KT 8SM -RA FEW008 BKN027 OVC032 09/09 A2998 RMK AO2 DZB1259E00RAB00 CIG 027V033 BKN V SCT SLP156 P0004 T00870085 $
KMDT - Harrisburg Intl Airport, Middletown, Pennsylvania
Distance from station: N 67mi, 107km
Updated: Thu, 21-Mar-2019 11:23am EDT
Rain, Mist, Overcast
Rain, Mist, Overcast
 Wind from NE
Wind: NE 3 mph , 6 km/h
Temperature: 43°F , 6°C
Dew Point: 39°F , 4°C
Humidity: 87%
Barometer: 29.98 inHg , 1015.2 hPa
Summary: Rain, Mist
Clouds: Overcast
Visibility: 2 1/2 miles , 4 km
Cloud details: Overcast 900 ft
2019/03/21 15:23 KMDT 211523Z 05003KT 2 1/2SM R13/2200VP6000FT RA BR OVC009 06/04 A2998 RMK AO2 P0008 T00560044
KMQS - Chester Co Carlson Airport, Coatesville, Pennsylvania
Distance from station: NE 68mi, 109km
Updated: Thu, 21-Mar-2019 11:15am EDT
Light rain, Overcast
Light rain, Overcast
 Wind from ENE
Wind: ENE 10 mph , 17 km/h, Gust: 20 mph , 31 km/h
Temperature: 45°F , 7°C
Wind Chill: 40°F , 4°C
Dew Point: 43°F , 6°C
Humidity: 93%
Barometer: 29.97 inHg , 1014.9 hPa
Summary: Light Rain
Clouds: Overcast
Visibility: 1 3/4 miles , 2.8 km
Cloud details: Overcast 100 ft
2019/03/21 15:15 KMQS 211515Z AUTO 07009G17KT 1 3/4SM -RA OVC001 07/06 A2997 RMK AO2
 
KCXY - Capital City Airport, Harrisburg, Pennsylvania
Distance from station: N 68mi, 110km
Updated: Thu, 21-Mar-2019 11:15am EDT
Light rain, Mist, Overcast
Light rain, Mist, Overcast
 Wind from E
Wind: E 5 mph , 7 km/h
Temperature: 43°F , 6°C
Wind Chill: 40°F , 4°C
Dew Point: 39°F , 4°C
Humidity: 87%
Barometer: 29.99 inHg , 1015.6 hPa
Summary: Light rain, Mist
Clouds: Overcast
Visibility: 5 miles , 8 km
Cloud details: Partly Cloudy 800 ft
Overcast 1400 ft
2019/03/21 15:15 KCXY 211515Z 08004KT 5SM -RA BR SCT008 OVC014 06/04 A2999 RMK AO2 P0002 T00560044
KNHK - Patuxent River NAS, Maryland
Distance from station: SE 69mi, 111km
Updated: Thu, 21-Mar-2019 11:17am EDT
Light rain, Mist, Overcast
Light rain, Mist, Overcast
 Wind from ENE
Wind: ENE 10 mph , 17 km/h
Temperature: 52°F , 11°C
Dew Point: 52°F , 11°C
Humidity: 100%
Barometer: 29.87 inHg , 1011.5 hPa
Summary: Light rain, Mist
Clouds: Overcast
Visibility: 3 miles , 5 km
Cloud details: Mostly Cloudy 200 ft
Mostly Cloudy 2300 ft
Overcast 7000 ft
2019/03/21 15:17 KNHK 211517Z 06009KT 3SM -RA BR BKN002 BKN023 OVC070 11/11 A2987 RMK AO2 VIS 2 1/2 RY24 P0002 T01110111
KMRB - Eastern WV Reg Airport/Shepherd Field, Martinsburg, West Virginia
Distance from station: W 70mi, 112km
Updated: Thu, 21-Mar-2019 11:15am EDT
Light rain, Mist, Overcast
Light rain, Mist, Overcast
 Wind from N
Wind: N 8 mph , 13 km/h
Temperature: 39°F , 4°C
Wind Chill: 33°F , 1°C
Dew Point: 39°F , 4°C
Humidity: 100%
Barometer: 29.94 inHg , 1013.9 hPa
Summary: Light rain, Mist
Clouds: Overcast
Visibility: 2 1/2 miles , 4 km
Cloud details: Overcast 500 ft
2019/03/21 15:15 KMRB 211515Z 36007KT 2 1/2SM -RA BR OVC005 04/04 A2994 RMK AO2 CIG 004V009 P0003 T00440039
 
KHWY - Warrenton-Fauquier Airport, Warrenton, Virginia
Distance from station: SW 71mi, 114km
Updated: Thu, 21-Mar-2019 11:15am EDT
Light rain, Overcast
Light rain, Overcast
 Wind from N
Wind: N 12 mph , 19 km/h
Temperature: 45°F , 7°C
Wind Chill: 39°F , 4°C
Dew Point: 41°F , 5°C
Humidity: 87%
Barometer: 29.89 inHg , 1012.2 hPa
Summary: Light Rain
Clouds: Overcast
Visibility: 10 miles , 16 km
Cloud details: Mostly Cloudy 500 ft
Mostly Cloudy 1300 ft
Overcast 4900 ft
2019/03/21 15:15 KHWY 211515Z AUTO 01010KT 10SM -RA BKN005 BKN013 OVC049 07/05 A2989 RMK AO2 P0002 T00670050
KRMN - Stafford Regional Airport, Virginia
Distance from station: SW 71mi, 114km
Updated: Thu, 21-Mar-2019 11:15am EDT
Light rain, Overcast
Light rain, Overcast
 Wind from N
Wind: N 12 mph , 19 km/h
Temperature: 46°F , 8°C
Wind Chill: 40°F , 4°C
Dew Point: 46°F , 8°C
Humidity: 100%
Barometer: 29.91 inHg , 1012.9 hPa
Summary: Light Rain
Clouds: Overcast
Visibility: 7 miles , 11 km
Cloud details: Mostly Cloudy 500 ft
Mostly Cloudy 1600 ft
Overcast 4100 ft
2019/03/21 15:15 KRMN 211515Z AUTO 36010KT 7SM -RA BKN005 BKN016 OVC041 08/08 A2991 RMK AO2 P0002 T00750075
KNUI - Webster Naval, St Inigoes, Maryland
Distance from station: S 76mi, 123km
Updated: Thu, 21-Mar-2019 10:53am EDT
Light rain, Overcast
Light rain, Overcast
 Wind from NE
Wind: NE 8 mph , 13 km/h
Temperature: 50°F , 10°C
Wind Chill: 47°F , 8°C
Dew Point: 50°F , 10°C
Humidity: 100%
Barometer: 29.88 inHg , 1011.9 hPa
Summary: Light Rain
Clouds: Overcast
Visibility: 8 miles , 13 km
Cloud details: Overcast 300 ft
2019/03/21 14:53 KNUI 211453Z AUTO 04007KT 8SM -RA OVC003 10/10 A2988 RMK AO2 SLP116 P0006 60033 T01000100 58027
 
KEZF - Fredericksburg/Shan, Virginia
Distance from station: SSW 78mi, 126km
Updated: Thu, 21-Mar-2019 11:15am EDT
Rain, Overcast
Rain, Overcast
 Wind from N
Wind: N 7 mph , 11 km/h
Temperature: 45°F , 7°C
Wind Chill: 41°F , 5°C
Dew Point: 45°F , 7°C
Humidity: 100%
Barometer: 29.86 inHg , 1011.2 hPa
Summary: Rain
Clouds: Overcast
Visibility: 7 miles , 11 km
Cloud details: Overcast 500 ft
2019/03/21 15:15 KEZF 211515Z AUTO 01006KT 7SM RA OVC005 07/07 A2986 RMK AO2 P0001 T00710071
KOKV - Winchester Regional Airport, Virginia
Distance from station: W 78mi, 126km
Updated: Thu, 21-Mar-2019 11:15am EDT
Rain, Overcast
Rain, Overcast
 Wind from calm
Wind: Calm
Temperature: 37°F , 3°C
Dew Point: 37°F , 3°C
Humidity: 100%
Barometer: 29.97 inHg , 1014.9 hPa
Summary: Rain
Clouds: Overcast
Visibility: 2 miles , 3 km
Cloud details: Overcast 400 ft
2019/03/21 15:15 KOKV 211515Z AUTO 00000KT 2SM RA OVC004 03/03 A2997 RMK AO2 P0002
KCJR - Culpeper Regional Airport, Virginia
Distance from station: SW 79mi, 128km
Updated: Thu, 21-Mar-2019 11:15am EDT
Rain, Overcast
Rain, Overcast
 Wind from N
Wind: N 10 mph , 17 km/h
Temperature: 43°F , 6°C
Wind Chill: 37°F , 3°C
Dew Point: 41°F , 5°C
Humidity: 93%
Barometer: 29.89 inHg , 1012.2 hPa
Summary: Rain
Clouds: Overcast
Visibility: 4 miles , 6 km
Cloud details: Mostly Cloudy 600 ft
Mostly Cloudy 1400 ft
Overcast 5000 ft
2019/03/21 15:15 KCJR 211515Z AUTO 35009KT 4SM RA BKN006 BKN014 OVC050 06/05 A2989 RMK AO2 P0002 T00620052